createdAt,value
2022-12-26T00:02:00.460Z,100075.17
2022-12-26T00:04:50.995Z,100079.51
2022-12-26T00:07:17.267Z,100078.45
2022-12-26T00:09:45.690Z,100074.85
2022-12-26T00:12:14.234Z,100077.11
2022-12-26T00:14:42.605Z,100083.38
2022-12-26T00:17:10.980Z,100068.95
2022-12-26T00:19:39.599Z,100054.85
2022-12-26T00:22:08.648Z,100056.21
2022-12-26T00:24:36.996Z,100070.10
2022-12-26T00:27:05.311Z,100076.86
2022-12-26T00:29:33.614Z,100061.04
2022-12-26T00:32:02.036Z,100050.29
2022-12-26T00:34:30.384Z,100039.78
2022-12-26T00:36:58.681Z,100033.50
2022-12-26T00:39:27.013Z,100020.79
2022-12-26T00:41:55.321Z,100032.13
2022-12-26T00:44:23.631Z,100049.14
2022-12-26T00:46:52.089Z,100048.51
2022-12-26T00:49:20.586Z,100048.01
2022-12-26T00:51:49.033Z,100044.08
2022-12-26T00:54:17.422Z,100031.23
2022-12-26T00:56:45.800Z,100029.98
2022-12-26T00:59:14.197Z,100029.54
2022-12-26T01:01:42.729Z,100020.81
2022-12-26T01:04:11.248Z,100021.75
2022-12-26T01:06:39.648Z,100018.74
2022-12-26T01:09:08.062Z,100022.66
2022-12-26T01:11:42.346Z,100016.96
2022-12-26T01:14:17.984Z,100015.35
2022-12-26T01:16:47.282Z,100020.61
2022-12-26T01:19:15.988Z,100032.58
2022-12-26T01:21:44.390Z,100039.50
2022-12-26T01:24:13.973Z,100037.11
2022-12-26T01:26:42.417Z,100028.08
2022-12-26T01:29:10.783Z,100021.70
2022-12-26T01:31:39.186Z,100026.61
2022-12-26T01:34:07.764Z,100017.32
2022-12-26T01:36:36.179Z,100009.68
2022-12-26T01:39:04.539Z,100008.09
2022-12-26T01:41:33.349Z,100006.08
2022-12-26T01:44:40.697Z,100003.55
2022-12-26T01:47:09.017Z,100005.38
2022-12-26T01:49:43.060Z,100011.67
2022-12-26T01:52:42.969Z,100009.82
2022-12-26T01:55:16.095Z,100008.92
2022-12-26T01:57:50.498Z,100009.54
2022-12-26T02:00:18.907Z,100003.96
2022-12-26T02:03:06.289Z,100008.16
2022-12-26T02:05:35.158Z,100004.17
2022-12-26T02:08:14.539Z,99996.10
2022-12-26T02:10:52.558Z,100005.64
2022-12-26T02:13:21.998Z,100012.04
2022-12-26T02:15:50.433Z,100009.70
2022-12-26T02:18:18.916Z,100003.20
2022-12-26T02:21:24.381Z,99997.89
2022-12-26T02:24:26.086Z,99988.29
2022-12-26T02:27:28.139Z,100007.51
2022-12-26T02:30:25.600Z,100002.69
2022-12-26T02:33:21.465Z,99981.38
2022-12-26T02:36:25.433Z,99972.81
2022-12-26T02:39:02.310Z,99976.02
2022-12-26T02:42:32.008Z,99980.88
2022-12-26T02:45:42.963Z,99969.50
2022-12-26T02:48:22.069Z,99956.75
2022-12-26T02:51:29.654Z,99953.95
2022-12-26T02:54:56.488Z,99950.82
2022-12-26T02:58:00.469Z,99949.86
2022-12-26T03:00:48.327Z,99955.95
2022-12-26T03:03:47.603Z,99956.36
2022-12-26T03:06:41.682Z,99956.22
2022-12-26T03:09:40.089Z,99947.00
2022-12-26T03:12:39.312Z,99940.80
2022-12-26T03:15:18.195Z,99944.84
2022-12-26T03:18:13.172Z,99941.76
2022-12-26T03:20:41.653Z,99948.40
2022-12-26T03:23:15.341Z,99943.73
2022-12-26T03:26:14.329Z,99931.89
2022-12-26T03:28:43.694Z,99923.21
2022-12-26T03:31:14.972Z,99924.61
2022-12-26T03:34:05.770Z,99930.84
2022-12-26T03:37:16.388Z,99938.95
2022-12-26T03:40:22.278Z,99932.81
2022-12-26T03:44:01.148Z,99932.67
2022-12-26T03:47:27.320Z,99928.48
2022-12-26T03:50:24.074Z,99936.69
2022-12-26T03:53:23.322Z,99932.37
2022-12-26T03:56:21.269Z,99926.49
2022-12-26T03:59:26.843Z,99924.97
2022-12-26T04:02:16.284Z,99933.08
2022-12-26T04:05:05.339Z,99927.98
2022-12-26T04:07:59.090Z,99925.38
2022-12-26T04:11:05.588Z,99923.00
2022-12-26T04:14:19.654Z,99924.86
2022-12-26T04:17:15.495Z,99920.97
2022-12-26T04:19:54.147Z,99911.15
2022-12-26T04:23:32.055Z,99912.77
2022-12-26T04:26:34.649Z,99911.99
2022-12-26T04:29:22.602Z,99907.95
2022-12-26T04:32:19.912Z,99896.75
2022-12-26T04:35:19.843Z,99906.73
2022-12-26T04:38:09.832Z,99913.85
2022-12-26T04:41:03.157Z,99909.46
2022-12-26T04:43:53.146Z,99919.56
2022-12-26T04:46:23.793Z,99918.36
2022-12-26T04:49:13.393Z,99914.90
2022-12-26T04:51:41.725Z,99903.58
2022-12-26T04:54:10.175Z,99912.51
2022-12-26T04:56:39.075Z,99900.17
2022-12-26T04:59:07.555Z,99894.86
2022-12-26T05:01:54.824Z,99899.31
2022-12-26T05:04:41.935Z,99906.48
2022-12-26T05:07:58.400Z,99894.19
2022-12-26T05:10:28.795Z,99908.17
2022-12-26T05:12:57.147Z,99898.70
2022-12-26T05:15:25.580Z,99889.98
2022-12-26T05:18:12.488Z,99884.73
2022-12-26T05:20:46.518Z,99875.04
2022-12-26T05:23:45.717Z,99874.60
2022-12-26T05:26:40.642Z,99871.73
2022-12-26T05:29:09.220Z,99876.79
2022-12-26T05:31:37.683Z,99875.52
2022-12-26T05:34:15.971Z,99875.58
2022-12-26T05:36:50.401Z,99874.55
2022-12-26T05:39:19.149Z,99880.46
2022-12-26T05:41:47.624Z,99881.14
2022-12-26T05:44:15.938Z,99880.65
2022-12-26T05:46:44.400Z,99875.63
2022-12-26T05:49:13.136Z,99875.11
2022-12-26T05:51:41.487Z,99874.46
2022-12-26T05:54:10.203Z,99881.36
2022-12-26T05:56:38.741Z,99876.63
2022-12-26T05:59:09.539Z,99872.70
2022-12-26T06:01:38.136Z,99882.12
2022-12-26T06:04:06.608Z,99890.39
2022-12-26T06:06:34.966Z,99895.79
2022-12-26T06:09:03.651Z,99899.55
2022-12-26T06:11:32.039Z,99896.08
2022-12-26T06:14:01.958Z,99890.04
2022-12-26T06:16:31.241Z,99885.28
2022-12-26T06:18:59.699Z,99887.73
2022-12-26T06:21:27.987Z,99892.20
2022-12-26T06:23:56.438Z,99892.74
2022-12-26T06:26:24.862Z,99897.52
2022-12-26T06:28:53.235Z,99895.48
2022-12-26T06:31:23.996Z,99895.71
2022-12-26T06:33:58.372Z,99894.78
2022-12-26T06:36:28.413Z,99900.97
2022-12-26T06:38:57.971Z,99914.65
2022-12-26T06:41:26.319Z,99910.55
2022-12-26T06:43:55.935Z,99909.70
2022-12-26T06:46:25.364Z,99917.83
2022-12-26T06:48:54.471Z,99929.73
2022-12-26T06:51:26.255Z,99931.38
2022-12-26T06:53:55.043Z,99924.23
2022-12-26T06:56:27.402Z,99916.39
2022-12-26T06:59:02.653Z,99918.98
2022-12-26T07:01:34.269Z,99927.42
2022-12-26T07:04:04.364Z,99928.96
2022-12-26T07:06:38.226Z,99928.48
2022-12-26T07:09:14.483Z,99927.95
2022-12-26T07:11:49.845Z,99932.50
2022-12-26T07:14:18.270Z,99933.02
2022-12-26T07:16:46.715Z,99942.20
2022-12-26T07:19:15.998Z,99947.88
2022-12-26T07:21:44.595Z,99946.23
2022-12-26T07:24:19.252Z,99940.25
2022-12-26T07:26:48.795Z,99943.55
2022-12-26T07:29:17.835Z,99953.20
2022-12-26T07:31:46.181Z,99955.48
2022-12-26T07:34:14.936Z,99950.39
2022-12-26T07:36:43.290Z,99938.71
2022-12-26T07:39:14.117Z,99943.27
2022-12-26T07:41:57.461Z,99951.75
2022-12-26T07:44:28.563Z,99945.35
2022-12-26T07:46:57.801Z,99943.80
2022-12-26T07:49:26.660Z,99924.73
2022-12-26T07:51:54.961Z,99919.52
2022-12-26T07:54:23.272Z,99923.56
2022-12-26T07:56:51.569Z,99935.38
2022-12-26T07:59:19.930Z,99938.90
2022-12-26T08:01:48.661Z,99947.16
2022-12-26T08:04:17.094Z,99955.61
2022-12-26T08:06:47.179Z,99955.95
2022-12-26T08:09:16.136Z,99946.52
2022-12-26T08:11:45.036Z,99939.23
2022-12-26T08:14:14.183Z,99938.45
2022-12-26T08:16:49.443Z,99947.84
2022-12-26T08:19:19.793Z,99951.61
2022-12-26T08:21:48.085Z,99958.19
2022-12-26T08:24:16.467Z,99953.34
2022-12-26T08:26:44.757Z,99950.23
2022-12-26T08:29:13.126Z,99946.90
2022-12-26T08:31:41.797Z,99953.80
2022-12-26T08:34:10.691Z,99951.55
2022-12-26T08:36:40.551Z,99950.38
2022-12-26T08:39:09.837Z,99953.27
2022-12-26T08:41:38.161Z,99956.55
2022-12-26T08:46:54.907Z,99955.99
2022-12-26T08:49:23.284Z,99955.83
2022-12-26T08:51:51.722Z,99942.67
2022-12-26T08:54:20.071Z,99952.52
2022-12-26T08:56:48.562Z,99954.16
2022-12-26T08:59:16.856Z,99951.71
2022-12-26T09:01:45.403Z,99951.52
2022-12-26T09:04:14.468Z,99959.88
2022-12-26T09:06:42.897Z,99961.79
2022-12-26T09:09:12.827Z,99964.61
2022-12-26T09:11:42.131Z,99970.42
2022-12-26T09:14:11.803Z,99964.92
2022-12-26T09:16:49.692Z,99966.38
2022-12-26T09:19:20.831Z,99966.48
2022-12-26T09:22:13.750Z,99974.45
2022-12-26T09:24:42.228Z,99976.14
2022-12-26T09:27:10.795Z,99970.73
2022-12-26T09:29:39.367Z,99976.15
2022-12-26T09:32:07.901Z,99972.81
2022-12-26T09:34:36.293Z,99966.54
2022-12-26T09:37:04.577Z,99980.30
2022-12-26T09:39:33.070Z,99977.04
2022-12-26T09:42:32.815Z,99978.45
2022-12-26T09:45:16.564Z,99982.70
2022-12-26T09:48:09.781Z,99988.23
2022-12-26T09:50:43.198Z,99990.09
2022-12-26T09:53:17.874Z,99986.17
2022-12-26T09:56:08.641Z,99987.34
2022-12-26T09:58:56.190Z,99986.63
2022-12-26T10:01:30.213Z,99992.39
2022-12-26T10:04:00.839Z,99996.95
2022-12-26T10:06:41.827Z,99994.23
2022-12-26T10:09:42.551Z,99991.41
2022-12-26T10:12:38.638Z,99975.80
2022-12-26T10:15:18.819Z,99960.87
2022-12-26T10:17:56.268Z,99961.87
2022-12-26T10:20:58.413Z,99961.64
2022-12-26T10:23:42.875Z,99963.61
2022-12-26T10:26:19.452Z,99954.11
2022-12-26T10:29:09.586Z,99955.81
2022-12-26T10:32:07.096Z,99952.86
2022-12-26T10:34:48.147Z,99954.25
2022-12-26T10:37:37.006Z,99948.87
2022-12-26T10:40:33.955Z,99940.47
2022-12-26T10:43:34.937Z,99941.23
2022-12-26T10:46:30.726Z,99942.20
2022-12-26T10:48:59.682Z,99939.45
2022-12-26T10:51:28.380Z,99932.54
2022-12-26T10:53:56.755Z,99925.70
2022-12-26T10:56:26.978Z,99931.30
2022-12-26T10:59:04.754Z,99937.34
2022-12-26T11:01:40.186Z,99940.20
2022-12-26T11:04:18.813Z,99932.59
2022-12-26T11:06:54.818Z,99925.67
2022-12-26T11:09:38.621Z,99925.41
2022-12-26T11:12:25.644Z,99927.69
2022-12-26T11:15:04.948Z,99920.48
2022-12-26T11:17:43.968Z,99927.38
2022-12-26T11:20:14.989Z,99937.46
2022-12-26T11:22:45.448Z,99937.41
2022-12-26T11:25:24.520Z,99940.05
2022-12-26T11:27:59.003Z,99939.50
2022-12-26T11:30:33.257Z,99927.11
2022-12-26T11:33:24.797Z,99917.95
2022-12-26T11:36:25.496Z,99915.54
2022-12-26T11:39:05.875Z,99920.76
2022-12-26T11:41:40.265Z,99934.65
2022-12-26T11:44:12.359Z,99929.89
2022-12-26T11:46:48.456Z,99923.05
2022-12-26T11:49:30.082Z,99914.35
2022-12-26T11:52:01.847Z,99904.25
2022-12-26T11:54:36.227Z,99898.65
2022-12-26T11:57:28.908Z,99901.88
2022-12-26T12:00:17.751Z,99898.48
2022-12-26T12:02:46.565Z,99902.75
2022-12-26T12:05:52.023Z,99896.05
2022-12-26T12:08:26.377Z,99896.03
2022-12-26T12:11:06.629Z,99887.25
2022-12-26T12:14:19.286Z,99893.76
2022-12-26T12:17:17.811Z,99899.97
2022-12-26T12:20:25.150Z,99903.19
2022-12-26T12:23:19.681Z,99899.89
2022-12-26T12:26:34.168Z,99899.20
2022-12-26T12:29:12.299Z,99896.59
2022-12-26T12:32:03.161Z,99898.90
2022-12-26T12:35:07.177Z,99897.15
2022-12-26T12:38:02.560Z,99892.30
2022-12-26T12:40:58.124Z,99890.60
2022-12-26T12:43:42.812Z,99885.38
2022-12-26T12:46:57.848Z,99891.69
2022-12-26T12:50:03.261Z,99905.20
2022-12-26T12:53:25.124Z,99910.84
2022-12-26T12:56:16.259Z,99905.29
2022-12-26T12:59:05.577Z,99898.10
2022-12-26T13:01:43.740Z,99886.91
2022-12-26T13:04:17.161Z,99884.55
2022-12-26T13:07:18.255Z,99890.05
2022-12-26T13:09:54.228Z,99898.17
2022-12-26T13:12:28.520Z,99897.23
2022-12-26T13:15:02.762Z,99891.20
2022-12-26T13:17:57.834Z,99888.48
2022-12-26T13:20:40.109Z,99893.80
2022-12-26T13:23:54.832Z,99891.56
2022-12-26T13:26:30.727Z,99891.65
2022-12-26T13:29:17.630Z,99894.66
2022-12-26T13:31:46.733Z,99892.08
2022-12-26T13:34:21.345Z,99891.77
2022-12-26T13:36:55.974Z,99889.73
2022-12-26T13:39:33.585Z,99899.31
2022-12-26T13:42:37.689Z,99910.08
2022-12-26T13:45:37.087Z,99921.65
2022-12-26T13:48:30.421Z,99918.26
2022-12-26T13:51:02.752Z,99912.12
2022-12-26T13:53:40.775Z,99911.02
2022-12-26T13:56:45.680Z,99910.00
2022-12-26T13:59:26.092Z,99903.09
2022-12-26T14:02:25.117Z,99907.36
2022-12-26T14:05:22.062Z,99897.73
2022-12-26T14:08:00.623Z,99901.73
2022-12-26T14:11:18.558Z,99905.77
2022-12-26T14:14:16.257Z,99903.61
2022-12-26T14:17:02.240Z,99911.32
2022-12-26T14:19:59.740Z,99905.85
2022-12-26T14:22:34.650Z,99901.44
2022-12-26T14:25:32.685Z,99900.89
2022-12-26T14:28:58.076Z,99901.19
2022-12-26T14:32:06.235Z,99894.00
2022-12-26T14:35:01.671Z,99890.69
2022-12-26T14:37:51.276Z,99889.05
2022-12-26T14:40:28.030Z,99888.05
2022-12-26T14:43:14.013Z,99886.54
2022-12-26T14:45:53.579Z,99882.91
2022-12-26T14:48:21.847Z,99885.02
2022-12-26T14:51:03.374Z,99887.45
2022-12-26T14:53:34.979Z,99896.34
2022-12-26T14:56:31.534Z,99913.87
2022-12-26T14:59:27.914Z,99920.01
2022-12-26T15:02:18.103Z,99916.63
2022-12-26T15:05:06.913Z,99917.30
2022-12-26T15:08:18.578Z,99920.39
2022-12-26T15:11:36.957Z,99917.30
2022-12-26T15:15:01.021Z,99912.29
2022-12-26T15:17:54.360Z,99905.80
2022-12-26T15:21:05.020Z,99910.98
2022-12-26T15:25:16.533Z,99907.35
2022-12-26T15:28:15.596Z,99912.25
2022-12-26T15:31:24.985Z,99920.16
2022-12-26T15:34:00.648Z,99907.58
2022-12-26T15:37:00.575Z,99901.23
2022-12-26T15:40:05.317Z,99901.70
2022-12-26T15:42:52.476Z,99908.80
2022-12-26T15:45:53.746Z,99911.53
2022-12-26T15:48:27.990Z,99920.38
2022-12-26T15:51:43.685Z,99924.25
2022-12-26T15:54:39.747Z,99929.20
2022-12-26T15:57:46.922Z,99921.34
2022-12-26T16:00:45.692Z,99918.08
2022-12-26T16:03:29.511Z,99920.57
2022-12-26T16:06:29.511Z,99918.66
2022-12-26T16:09:15.609Z,99917.99
2022-12-26T16:11:59.941Z,99918.02
2022-12-26T16:14:33.921Z,99919.18
2022-12-26T16:17:14.417Z,99913.81
2022-12-26T16:19:45.893Z,99914.64
2022-12-26T16:22:44.359Z,99920.64
2022-12-26T16:25:24.424Z,99922.10
2022-12-26T16:27:58.181Z,99926.23
2022-12-26T16:30:36.587Z,99926.83
2022-12-26T16:33:06.048Z,99930.95
2022-12-26T16:35:39.723Z,99935.58
2022-12-26T16:38:15.744Z,99940.25
2022-12-26T16:40:50.432Z,99947.33
2022-12-26T16:43:18.824Z,99961.23
2022-12-26T16:45:51.148Z,99970.55
2022-12-26T16:48:23.359Z,99976.09
2022-12-26T16:51:01.797Z,99977.77
2022-12-26T16:53:35.963Z,99977.20
2022-12-26T16:56:10.262Z,99990.94
2022-12-26T16:58:39.049Z,99994.28
2022-12-26T17:01:14.503Z,100003.02
2022-12-26T17:04:16.038Z,100002.68
2022-12-26T17:06:57.427Z,100000.48
2022-12-26T17:09:28.982Z,100004.09
2022-12-26T17:12:07.838Z,100009.76
2022-12-26T17:14:40.967Z,100009.27
2022-12-26T17:17:37.887Z,100008.77
2022-12-26T17:20:36.030Z,100014.48
2022-12-26T17:23:37.672Z,100007.36
2022-12-26T17:26:29.049Z,100005.95
2022-12-26T17:28:57.782Z,100005.94
2022-12-26T17:31:41.727Z,100012.34
2022-12-26T17:34:26.719Z,100014.14
2022-12-26T17:39:43.650Z,100001.27
2022-12-26T17:42:13.056Z,100008.42
2022-12-26T17:44:46.043Z,100009.48
2022-12-26T17:47:23.370Z,100016.40
2022-12-26T17:49:53.787Z,100016.36
2022-12-26T17:52:29.295Z,100015.57
2022-12-26T17:54:58.212Z,100017.75
2022-12-26T17:57:29.861Z,100014.65
2022-12-26T17:59:58.478Z,100011.09
2022-12-26T18:02:26.863Z,100016.31
2022-12-26T18:04:55.951Z,100022.87
2022-12-26T18:07:31.037Z,100019.80
2022-12-26T18:10:01.951Z,100018.59
2022-12-26T18:12:30.674Z,100017.05
2022-12-26T18:15:02.062Z,100019.31
2022-12-26T18:17:33.408Z,100019.40
2022-12-26T18:20:04.550Z,100021.65
2022-12-26T18:22:33.035Z,100022.88
2022-12-26T18:25:01.400Z,100027.20
2022-12-26T18:27:32.873Z,100023.66
2022-12-26T18:30:02.008Z,100027.10
2022-12-26T18:32:33.877Z,100033.64
2022-12-26T18:35:02.255Z,100030.33
2022-12-26T18:37:30.867Z,100024.05
2022-12-26T18:39:59.317Z,100019.17
2022-12-26T18:42:27.869Z,100019.80
2022-12-26T18:44:56.344Z,100027.98
2022-12-26T18:47:24.751Z,100037.00
2022-12-26T18:49:53.110Z,100031.58
2022-12-26T18:52:21.441Z,100026.13
2022-12-26T18:54:49.738Z,100027.46
2022-12-26T18:57:20.410Z,100026.90
2022-12-26T18:59:48.704Z,100026.95
2022-12-26T19:02:19.257Z,100023.98
2022-12-26T19:04:48.995Z,100017.20
2022-12-26T19:07:22.424Z,100017.40
2022-12-26T19:09:58.050Z,100013.31
2022-12-26T19:12:26.586Z,100010.10
2022-12-26T19:14:54.945Z,100011.34
2022-12-26T19:17:23.309Z,100013.55
2022-12-26T19:19:51.645Z,100015.63
2022-12-26T19:22:20.122Z,100014.70
2022-12-26T19:24:48.469Z,100007.54
2022-12-26T19:27:16.780Z,100003.38
2022-12-26T19:29:45.393Z,100006.34
2022-12-26T19:32:14.015Z,100004.74
2022-12-26T19:34:42.412Z,100007.87
2022-12-26T19:37:10.932Z,100006.08
2022-12-26T19:39:39.247Z,100010.33
2022-12-26T19:42:07.640Z,100015.02
2022-12-26T19:44:36.256Z,100017.09
2022-12-26T19:47:12.027Z,100007.38
2022-12-26T19:49:42.338Z,100007.93
2022-12-26T19:52:12.006Z,100015.52
2022-12-26T19:54:40.427Z,100013.64
2022-12-26T19:57:08.868Z,100021.07
2022-12-26T19:59:37.307Z,100021.31
2022-12-26T20:02:06.439Z,100021.48
2022-12-26T20:04:34.974Z,100032.55
2022-12-26T20:07:03.428Z,100035.73
2022-12-26T20:09:31.939Z,100035.98
2022-12-26T20:12:01.599Z,100031.42
2022-12-26T20:14:32.346Z,100029.48
2022-12-26T20:17:06.826Z,100030.23
2022-12-26T20:19:37.177Z,100029.28
2022-12-26T20:22:06.532Z,100019.38
2022-12-26T20:24:35.121Z,100017.17
2022-12-26T20:27:03.759Z,100016.54
2022-12-26T20:29:32.307Z,100028.40
2022-12-26T20:32:00.798Z,100033.94
2022-12-26T20:34:29.319Z,100028.20
2022-12-26T20:36:57.688Z,100031.48
2022-12-26T20:39:26.072Z,100026.98
2022-12-26T20:41:54.473Z,100018.71
2022-12-26T20:44:24.581Z,100013.09
2022-12-26T20:46:52.981Z,100020.69
2022-12-26T20:49:22.778Z,100020.84
2022-12-26T20:51:51.142Z,100020.11
2022-12-26T20:54:19.562Z,100013.66
2022-12-26T20:56:47.894Z,100001.33
2022-12-26T20:59:16.298Z,99990.41
2022-12-26T21:01:44.869Z,99993.80
2022-12-26T21:04:21.816Z,99997.42
2022-12-26T21:06:50.561Z,99993.48
2022-12-26T21:09:18.964Z,99989.96
2022-12-26T21:11:47.289Z,99990.67
2022-12-26T21:14:19.489Z,99988.19
2022-12-26T21:16:58.941Z,99987.00
2022-12-26T21:19:29.567Z,99989.84
2022-12-26T21:21:58.070Z,99992.73
2022-12-26T21:24:31.866Z,99996.16
2022-12-26T21:27:00.528Z,99992.95
2022-12-26T21:29:32.636Z,99998.10
2022-12-26T21:32:02.836Z,99997.79
2022-12-26T21:34:33.708Z,99994.46
2022-12-26T21:37:20.538Z,100001.05
2022-12-26T21:39:50.615Z,100006.29
2022-12-26T21:42:19.096Z,100004.03
2022-12-26T21:44:47.729Z,100002.73
2022-12-26T21:47:16.134Z,100001.65
2022-12-26T21:49:44.455Z,99997.20
2022-12-26T21:52:13.051Z,100005.17
2022-12-26T21:54:59.991Z,100008.52
2022-12-26T21:57:30.633Z,100015.34
2022-12-26T21:59:59.643Z,100014.52
2022-12-26T22:02:53.593Z,100008.86
2022-12-26T22:05:27.008Z,99996.04
2022-12-26T22:08:01.203Z,99994.11
2022-12-26T22:10:51.198Z,99980.67
2022-12-26T22:13:21.929Z,99972.15
2022-12-26T22:16:03.424Z,99977.25
2022-12-26T22:18:47.128Z,99977.75
2022-12-26T22:21:21.131Z,99984.81
2022-12-26T22:23:50.663Z,99988.09
2022-12-26T22:26:22.651Z,99990.38
2022-12-26T22:28:51.197Z,99989.38
2022-12-26T22:31:33.752Z,99990.30
2022-12-26T22:34:06.441Z,99994.70
2022-12-26T22:36:35.112Z,100005.55
2022-12-26T22:39:04.069Z,100012.33
2022-12-26T22:41:33.449Z,100015.00
2022-12-26T22:44:01.807Z,100026.02
2022-12-26T22:46:30.186Z,100027.66
2022-12-26T22:48:58.605Z,100031.28
2022-12-26T22:51:27.293Z,100038.31
2022-12-26T22:53:58.858Z,100037.36
2022-12-26T22:56:28.582Z,100033.65
2022-12-26T22:59:03.033Z,100030.41
2022-12-26T23:01:31.920Z,100038.59
2022-12-26T23:04:01.288Z,100032.29
2022-12-26T23:06:34.748Z,100037.21
2022-12-26T23:09:10.648Z,100038.16
2022-12-26T23:11:39.613Z,100041.56
2022-12-26T23:14:12.046Z,100044.92
2022-12-26T23:16:56.236Z,100048.79
2022-12-26T23:20:07.164Z,100047.67
2022-12-26T23:22:36.266Z,100058.56
2022-12-26T23:25:04.936Z,100069.75
2022-12-26T23:27:51.777Z,100077.52
2022-12-26T23:30:20.169Z,100081.83
2022-12-26T23:32:53.272Z,100088.13
2022-12-26T23:35:22.802Z,100098.53
2022-12-26T23:37:51.749Z,100097.72
2022-12-26T23:40:21.337Z,100100.45
2022-12-26T23:42:49.709Z,100105.41
2022-12-26T23:45:18.422Z,100107.35
2022-12-26T23:47:46.977Z,100106.73
2022-12-26T23:50:17.313Z,100105.31
2022-12-26T23:52:45.732Z,100094.37
2022-12-26T23:55:14.088Z,100074.83
2022-12-26T23:57:42.610Z,100067.33
